sensor_id;sensor_type;location;lat;lon;timestamp;P1;durP1;ratioP1;P2;durP2;ratioP2
7965;SDS011;4028;43.272;26.932;2023-03-19T00:00:10;45.03;;;25.93;;
7965;SDS011;4028;43.272;26.932;2023-03-19T00:02:37;46.17;;;27.37;;
7965;SDS011;4028;43.272;26.932;2023-03-19T00:05:03;47.40;;;27.20;;
7965;SDS011;4028;43.272;26.932;2023-03-19T00:07:29;44.60;;;27.80;;
7965;SDS011;4028;43.272;26.932;2023-03-19T00:09:54;45.53;;;28.03;;
7965;SDS011;4028;43.272;26.932;2023-03-19T00:12:20;43.53;;;25.53;;
7965;SDS011;4028;43.272;26.932;2023-03-19T00:14:45;42.60;;;25.47;;
7965;SDS011;4028;43.272;26.932;2023-03-19T00:17:11;43.10;;;25.87;;
7965;SDS011;4028;43.272;26.932;2023-03-19T00:19:36;45.03;;;25.77;;
7965;SDS011;4028;43.272;26.932;2023-03-19T00:22:03;41.00;;;25.90;;
7965;SDS011;4028;43.272;26.932;2023-03-19T00:24:28;48.67;;;27.77;;
7965;SDS011;4028;43.272;26.932;2023-03-19T00:26:54;41.67;;;25.33;;
7965;SDS011;4028;43.272;26.932;2023-03-19T00:29:20;46.40;;;28.27;;
7965;SDS011;4028;43.272;26.932;2023-03-19T00:31:47;56.87;;;29.80;;
7965;SDS011;4028;43.272;26.932;2023-03-19T00:34:13;47.03;;;26.83;;
7965;SDS011;4028;43.272;26.932;2023-03-19T00:36:38;48.57;;;28.00;;
7965;SDS011;4028;43.272;26.932;2023-03-19T00:39:04;49.70;;;29.27;;
7965;SDS011;4028;43.272;26.932;2023-03-19T00:41:30;46.77;;;27.73;;
7965;SDS011;4028;43.272;26.932;2023-03-19T00:43:56;47.37;;;28.70;;
7965;SDS011;4028;43.272;26.932;2023-03-19T00:46:23;50.03;;;27.97;;
7965;SDS011;4028;43.272;26.932;2023-03-19T00:48:49;44.37;;;25.93;;
7965;SDS011;4028;43.272;26.932;2023-03-19T00:51:17;48.53;;;26.83;;
7965;SDS011;4028;43.272;26.932;2023-03-19T00:53:43;42.63;;;26.93;;
7965;SDS011;4028;43.272;26.932;2023-03-19T00:56:10;44.70;;;27.87;;
7965;SDS011;4028;43.272;26.932;2023-03-19T00:58:37;49.57;;;28.37;;
7965;SDS011;4028;43.272;26.932;2023-03-19T01:01:05;49.87;;;28.13;;
7965;SDS011;4028;43.272;26.932;2023-03-19T01:03:31;47.50;;;28.90;;
7965;SDS011;4028;43.272;26.932;2023-03-19T01:05:57;48.90;;;28.47;;
7965;SDS011;4028;43.272;26.932;2023-03-19T01:08:23;54.30;;;29.37;;
7965;SDS011;4028;43.272;26.932;2023-03-19T01:10:49;52.57;;;28.60;;
7965;SDS011;4028;43.272;26.932;2023-03-19T01:13:14;53.23;;;30.00;;
7965;SDS011;4028;43.272;26.932;2023-03-19T01:15:40;49.73;;;29.43;;
7965;SDS011;4028;43.272;26.932;2023-03-19T01:18:08;50.03;;;29.77;;
7965;SDS011;4028;43.272;26.932;2023-03-19T01:20:35;55.80;;;30.30;;
7965;SDS011;4028;43.272;26.932;2023-03-19T01:23:02;52.97;;;30.97;;
7965;SDS011;4028;43.272;26.932;2023-03-19T01:25:28;56.67;;;31.23;;
7965;SDS011;4028;43.272;26.932;2023-03-19T01:27:54;56.17;;;29.97;;
7965;SDS011;4028;43.272;26.932;2023-03-19T01:30:19;53.57;;;29.13;;
7965;SDS011;4028;43.272;26.932;2023-03-19T01:32:45;52.83;;;30.73;;
7965;SDS011;4028;43.272;26.932;2023-03-19T01:35:11;55.83;;;32.10;;
7965;SDS011;4028;43.272;26.932;2023-03-19T01:37:36;55.03;;;30.33;;
7965;SDS011;4028;43.272;26.932;2023-03-19T01:40:04;63.70;;;32.77;;
7965;SDS011;4028;43.272;26.932;2023-03-19T01:42:31;55.03;;;31.37;;
7965;SDS011;4028;43.272;26.932;2023-03-19T01:44:57;54.07;;;30.57;;
7965;SDS011;4028;43.272;26.932;2023-03-19T01:47:28;57.50;;;30.03;;
7965;SDS011;4028;43.272;26.932;2023-03-19T01:49:55;54.33;;;29.63;;
7965;SDS011;4028;43.272;26.932;2023-03-19T01:52:22;53.00;;;29.90;;
7965;SDS011;4028;43.272;26.932;2023-03-19T01:54:51;53.83;;;30.27;;
7965;SDS011;4028;43.272;26.932;2023-03-19T01:57:19;52.70;;;29.30;;
7965;SDS011;4028;43.272;26.932;2023-03-19T01:59:56;53.67;;;31.60;;
7965;SDS011;4028;43.272;26.932;2023-03-19T02:02:31;54.13;;;31.57;;
7965;SDS011;4028;43.272;26.932;2023-03-19T02:05:03;54.97;;;31.37;;
7965;SDS011;4028;43.272;26.932;2023-03-19T02:07:33;54.57;;;30.77;;
7965;SDS011;4028;43.272;26.932;2023-03-19T02:10:02;54.97;;;29.93;;
7965;SDS011;4028;43.272;26.932;2023-03-19T02:12:31;53.83;;;32.30;;
7965;SDS011;4028;43.272;26.932;2023-03-19T02:14:57;55.10;;;31.80;;
7965;SDS011;4028;43.272;26.932;2023-03-19T02:17:22;59.67;;;32.13;;
7965;SDS011;4028;43.272;26.932;2023-03-19T02:19:49;54.93;;;31.93;;
7965;SDS011;4028;43.272;26.932;2023-03-19T02:22:25;61.70;;;32.57;;
7965;SDS011;4028;43.272;26.932;2023-03-19T02:25:01;53.13;;;29.87;;
7965;SDS011;4028;43.272;26.932;2023-03-19T02:27:28;52.77;;;30.33;;
7965;SDS011;4028;43.272;26.932;2023-03-19T02:29:54;56.40;;;31.87;;
7965;SDS011;4028;43.272;26.932;2023-03-19T02:32:19;59.33;;;31.57;;
7965;SDS011;4028;43.272;26.932;2023-03-19T02:34:45;57.17;;;32.23;;
7965;SDS011;4028;43.272;26.932;2023-03-19T02:37:13;57.37;;;32.17;;
7965;SDS011;4028;43.272;26.932;2023-03-19T02:42:54;55.63;;;31.67;;
7965;SDS011;4028;43.272;26.932;2023-03-19T02:45:20;61.90;;;32.37;;
7965;SDS011;4028;43.272;26.932;2023-03-19T02:47:47;51.80;;;31.00;;
7965;SDS011;4028;43.272;26.932;2023-03-19T02:50:12;54.37;;;31.60;;
7965;SDS011;4028;43.272;26.932;2023-03-19T02:52:38;58.00;;;30.93;;
7965;SDS011;4028;43.272;26.932;2023-03-19T02:55:03;62.07;;;32.27;;
7965;SDS011;4028;43.272;26.932;2023-03-19T02:57:29;52.50;;;31.07;;
7965;SDS011;4028;43.272;26.932;2023-03-19T02:59:55;57.20;;;31.00;;
7965;SDS011;4028;43.272;26.932;2023-03-19T03:02:20;58.30;;;31.70;;
7965;SDS011;4028;43.272;26.932;2023-03-19T03:04:46;56.13;;;30.20;;
7965;SDS011;4028;43.272;26.932;2023-03-19T03:07:11;53.27;;;30.13;;
7965;SDS011;4028;43.272;26.932;2023-03-19T03:09:37;45.03;;;28.13;;
7965;SDS011;4028;43.272;26.932;2023-03-19T03:12:02;51.37;;;29.97;;
7965;SDS011;4028;43.272;26.932;2023-03-19T03:14:28;52.77;;;30.67;;
7965;SDS011;4028;43.272;26.932;2023-03-19T03:16:53;52.77;;;31.50;;
7965;SDS011;4028;43.272;26.932;2023-03-19T03:19:19;53.17;;;30.63;;
7965;SDS011;4028;43.272;26.932;2023-03-19T03:21:45;54.43;;;30.10;;
7965;SDS011;4028;43.272;26.932;2023-03-19T03:24:11;55.33;;;29.47;;
7965;SDS011;4028;43.272;26.932;2023-03-19T03:26:36;52.40;;;28.90;;
7965;SDS011;4028;43.272;26.932;2023-03-19T03:29:05;51.70;;;29.17;;
7965;SDS011;4028;43.272;26.932;2023-03-19T03:31:31;56.03;;;31.03;;
7965;SDS011;4028;43.272;26.932;2023-03-19T03:33:58;60.83;;;31.40;;
7965;SDS011;4028;43.272;26.932;2023-03-19T03:36:24;50.10;;;30.50;;
7965;SDS011;4028;43.272;26.932;2023-03-19T03:38:51;50.83;;;29.33;;
7965;SDS011;4028;43.272;26.932;2023-03-19T03:41:17;51.87;;;31.10;;
7965;SDS011;4028;43.272;26.932;2023-03-19T03:43:43;55.63;;;30.43;;
7965;SDS011;4028;43.272;26.932;2023-03-19T03:46:08;53.43;;;30.37;;
7965;SDS011;4028;43.272;26.932;2023-03-19T03:48:34;53.30;;;31.60;;
7965;SDS011;4028;43.272;26.932;2023-03-19T03:51:00;55.33;;;29.87;;
7965;SDS011;4028;43.272;26.932;2023-03-19T03:53:26;56.63;;;31.40;;
7965;SDS011;4028;43.272;26.932;2023-03-19T03:55:51;58.23;;;30.63;;
7965;SDS011;4028;43.272;26.932;2023-03-19T03:58:17;54.87;;;30.03;;
7965;SDS011;4028;43.272;26.932;2023-03-19T04:00:43;56.27;;;31.77;;
7965;SDS011;4028;43.272;26.932;2023-03-19T04:03:08;59.23;;;31.60;;
7965;SDS011;4028;43.272;26.932;2023-03-19T04:05:34;54.73;;;30.77;;
7965;SDS011;4028;43.272;26.932;2023-03-19T04:08:01;55.93;;;30.23;;
7965;SDS011;4028;43.272;26.932;2023-03-19T04:10:27;60.73;;;30.40;;
7965;SDS011;4028;43.272;26.932;2023-03-19T04:12:53;56.67;;;30.40;;
7965;SDS011;4028;43.272;26.932;2023-03-19T04:15:18;54.00;;;30.23;;
7965;SDS011;4028;43.272;26.932;2023-03-19T04:17:44;51.83;;;29.57;;
7965;SDS011;4028;43.272;26.932;2023-03-19T04:20:10;55.87;;;31.07;;
7965;SDS011;4028;43.272;26.932;2023-03-19T04:22:36;51.90;;;30.20;;
7965;SDS011;4028;43.272;26.932;2023-03-19T04:25:02;51.07;;;28.20;;
7965;SDS011;4028;43.272;26.932;2023-03-19T04:27:28;52.83;;;30.83;;
7965;SDS011;4028;43.272;26.932;2023-03-19T04:29:54;53.93;;;30.40;;
7965;SDS011;4028;43.272;26.932;2023-03-19T04:32:19;55.90;;;30.50;;
7965;SDS011;4028;43.272;26.932;2023-03-19T04:34:45;51.80;;;29.30;;
7965;SDS011;4028;43.272;26.932;2023-03-19T04:37:10;55.43;;;29.27;;
7965;SDS011;4028;43.272;26.932;2023-03-19T04:39:36;55.20;;;30.40;;
7965;SDS011;4028;43.272;26.932;2023-03-19T04:42:02;60.57;;;30.23;;
7965;SDS011;4028;43.272;26.932;2023-03-19T04:44:28;53.53;;;29.73;;
7965;SDS011;4028;43.272;26.932;2023-03-19T04:46:55;52.20;;;30.57;;
7965;SDS011;4028;43.272;26.932;2023-03-19T04:49:20;55.00;;;30.33;;
7965;SDS011;4028;43.272;26.932;2023-03-19T04:51:46;54.13;;;29.33;;
7965;SDS011;4028;43.272;26.932;2023-03-19T04:54:11;53.73;;;30.20;;
7965;SDS011;4028;43.272;26.932;2023-03-19T04:56:37;57.30;;;30.83;;
7965;SDS011;4028;43.272;26.932;2023-03-19T04:59:02;54.97;;;29.87;;
7965;SDS011;4028;43.272;26.932;2023-03-19T05:01:28;53.57;;;29.60;;
7965;SDS011;4028;43.272;26.932;2023-03-19T05:03:53;55.27;;;31.20;;
7965;SDS011;4028;43.272;26.932;2023-03-19T05:06:19;54.53;;;32.20;;
7965;SDS011;4028;43.272;26.932;2023-03-19T05:08:45;52.80;;;29.23;;
7965;SDS011;4028;43.272;26.932;2023-03-19T05:11:11;59.83;;;31.30;;
7965;SDS011;4028;43.272;26.932;2023-03-19T05:13:36;57.57;;;31.23;;
7965;SDS011;4028;43.272;26.932;2023-03-19T05:16:02;60.13;;;32.63;;
7965;SDS011;4028;43.272;26.932;2023-03-19T05:18:28;58.57;;;31.13;;
7965;SDS011;4028;43.272;26.932;2023-03-19T05:20:53;57.77;;;32.27;;
7965;SDS011;4028;43.272;26.932;2023-03-19T05:23:19;55.57;;;31.50;;
7965;SDS011;4028;43.272;26.932;2023-03-19T05:25:45;56.30;;;31.83;;
7965;SDS011;4028;43.272;26.932;2023-03-19T05:28:11;69.00;;;31.67;;
7965;SDS011;4028;43.272;26.932;2023-03-19T05:30:37;54.00;;;30.53;;
7965;SDS011;4028;43.272;26.932;2023-03-19T05:33:03;59.97;;;31.17;;
7965;SDS011;4028;43.272;26.932;2023-03-19T05:35:28;60.03;;;31.30;;
7965;SDS011;4028;43.272;26.932;2023-03-19T05:37:54;59.47;;;31.60;;
7965;SDS011;4028;43.272;26.932;2023-03-19T05:40:21;58.37;;;31.90;;
7965;SDS011;4028;43.272;26.932;2023-03-19T05:42:48;61.93;;;32.53;;
7965;SDS011;4028;43.272;26.932;2023-03-19T05:45:14;68.67;;;34.37;;
7965;SDS011;4028;43.272;26.932;2023-03-19T05:47:41;59.73;;;31.23;;
7965;SDS011;4028;43.272;26.932;2023-03-19T05:50:07;66.57;;;32.90;;
7965;SDS011;4028;43.272;26.932;2023-03-19T05:52:33;62.07;;;32.50;;
7965;SDS011;4028;43.272;26.932;2023-03-19T05:54:59;62.07;;;33.50;;
7965;SDS011;4028;43.272;26.932;2023-03-19T05:57:25;63.87;;;33.00;;
7965;SDS011;4028;43.272;26.932;2023-03-19T05:59:51;55.90;;;30.80;;
7965;SDS011;4028;43.272;26.932;2023-03-19T06:02:17;62.50;;;35.60;;
7965;SDS011;4028;43.272;26.932;2023-03-19T06:04:43;66.13;;;33.77;;
7965;SDS011;4028;43.272;26.932;2023-03-19T06:07:08;57.70;;;31.93;;
7965;SDS011;4028;43.272;26.932;2023-03-19T06:09:34;57.23;;;31.60;;
7965;SDS011;4028;43.272;26.932;2023-03-19T06:11:59;52.90;;;30.00;;
7965;SDS011;4028;43.272;26.932;2023-03-19T06:14:25;52.33;;;29.87;;
7965;SDS011;4028;43.272;26.932;2023-03-19T06:16:50;55.37;;;31.43;;
7965;SDS011;4028;43.272;26.932;2023-03-19T06:19:16;56.87;;;29.83;;
7965;SDS011;4028;43.272;26.932;2023-03-19T06:21:41;55.70;;;30.47;;
7965;SDS011;4028;43.272;26.932;2023-03-19T06:24:07;56.43;;;31.23;;
7965;SDS011;4028;43.272;26.932;2023-03-19T06:26:32;53.10;;;29.03;;
7965;SDS011;4028;43.272;26.932;2023-03-19T06:28:58;47.17;;;27.87;;
7965;SDS011;4028;43.272;26.932;2023-03-19T06:31:24;47.93;;;29.57;;
7965;SDS011;4028;43.272;26.932;2023-03-19T06:33:49;45.33;;;28.30;;
7965;SDS011;4028;43.272;26.932;2023-03-19T06:36:15;57.60;;;31.07;;
7965;SDS011;4028;43.272;26.932;2023-03-19T06:38:41;47.10;;;27.03;;
7965;SDS011;4028;43.272;26.932;2023-03-19T06:41:07;46.90;;;26.10;;
7965;SDS011;4028;43.272;26.932;2023-03-19T06:43:33;42.80;;;26.20;;
7965;SDS011;4028;43.272;26.932;2023-03-19T06:46:02;44.50;;;26.47;;
7965;SDS011;4028;43.272;26.932;2023-03-19T06:48:29;45.63;;;28.53;;
7965;SDS011;4028;43.272;26.932;2023-03-19T06:50:55;46.00;;;25.97;;
7965;SDS011;4028;43.272;26.932;2023-03-19T06:53:20;41.83;;;25.33;;
7965;SDS011;4028;43.272;26.932;2023-03-19T06:55:46;41.80;;;24.80;;
7965;SDS011;4028;43.272;26.932;2023-03-19T06:58:11;31.03;;;20.90;;
7965;SDS011;4028;43.272;26.932;2023-03-19T07:00:37;30.70;;;20.23;;
7965;SDS011;4028;43.272;26.932;2023-03-19T07:03:02;32.60;;;21.50;;
7965;SDS011;4028;43.272;26.932;2023-03-19T07:05:28;34.73;;;22.53;;
7965;SDS011;4028;43.272;26.932;2023-03-19T07:07:53;33.90;;;22.63;;
7965;SDS011;4028;43.272;26.932;2023-03-19T07:10:19;31.67;;;22.40;;
7965;SDS011;4028;43.272;26.932;2023-03-19T07:12:45;32.43;;;21.43;;
7965;SDS011;4028;43.272;26.932;2023-03-19T07:15:10;31.97;;;22.00;;
7965;SDS011;4028;43.272;26.932;2023-03-19T07:17:36;41.93;;;27.77;;
7965;SDS011;4028;43.272;26.932;2023-03-19T07:20:01;38.50;;;24.77;;
7965;SDS011;4028;43.272;26.932;2023-03-19T07:22:27;29.60;;;21.70;;
7965;SDS011;4028;43.272;26.932;2023-03-19T07:24:53;27.87;;;19.77;;
7965;SDS011;4028;43.272;26.932;2023-03-19T07:27:18;30.53;;;20.63;;
7965;SDS011;4028;43.272;26.932;2023-03-19T07:29:44;29.03;;;19.43;;
7965;SDS011;4028;43.272;26.932;2023-03-19T07:32:09;26.53;;;18.50;;
7965;SDS011;4028;43.272;26.932;2023-03-19T07:34:35;28.97;;;18.43;;
7965;SDS011;4028;43.272;26.932;2023-03-19T07:37:01;27.13;;;19.43;;
7965;SDS011;4028;43.272;26.932;2023-03-19T07:39:26;30.37;;;20.53;;
7965;SDS011;4028;43.272;26.932;2023-03-19T07:41:52;25.03;;;19.07;;
7965;SDS011;4028;43.272;26.932;2023-03-19T07:44:17;25.40;;;18.30;;
7965;SDS011;4028;43.272;26.932;2023-03-19T07:46:43;26.40;;;18.57;;
7965;SDS011;4028;43.272;26.932;2023-03-19T07:49:09;26.63;;;19.27;;
7965;SDS011;4028;43.272;26.932;2023-03-19T07:51:34;26.40;;;17.47;;
7965;SDS011;4028;43.272;26.932;2023-03-19T07:54:00;25.50;;;17.87;;
7965;SDS011;4028;43.272;26.932;2023-03-19T07:56:26;25.37;;;17.40;;
7965;SDS011;4028;43.272;26.932;2023-03-19T07:58:51;23.80;;;18.50;;
7965;SDS011;4028;43.272;26.932;2023-03-19T08:01:17;23.93;;;17.30;;
7965;SDS011;4028;43.272;26.932;2023-03-19T08:03:43;23.23;;;17.63;;
7965;SDS011;4028;43.272;26.932;2023-03-19T08:06:08;25.30;;;17.30;;
7965;SDS011;4028;43.272;26.932;2023-03-19T08:08:34;22.77;;;16.73;;
7965;SDS011;4028;43.272;26.932;2023-03-19T08:11:00;24.33;;;18.37;;
7965;SDS011;4028;43.272;26.932;2023-03-19T08:13:26;23.93;;;17.40;;
7965;SDS011;4028;43.272;26.932;2023-03-19T08:15:55;26.13;;;18.00;;
7965;SDS011;4028;43.272;26.932;2023-03-19T08:18:20;25.77;;;18.80;;
7965;SDS011;4028;43.272;26.932;2023-03-19T08:20:46;23.30;;;17.63;;
7965;SDS011;4028;43.272;26.932;2023-03-19T08:23:12;26.07;;;19.13;;
7965;SDS011;4028;43.272;26.932;2023-03-19T08:25:38;26.30;;;17.33;;
7965;SDS011;4028;43.272;26.932;2023-03-19T08:28:04;25.07;;;17.97;;
7965;SDS011;4028;43.272;26.932;2023-03-19T08:30:30;52.57;;;35.77;;
7965;SDS011;4028;43.272;26.932;2023-03-19T08:32:56;34.60;;;24.50;;
7965;SDS011;4028;43.272;26.932;2023-03-19T08:35:21;28.60;;;19.87;;
7965;SDS011;4028;43.272;26.932;2023-03-19T08:37:47;24.93;;;19.73;;
7965;SDS011;4028;43.272;26.932;2023-03-19T08:40:13;25.27;;;19.07;;
7965;SDS011;4028;43.272;26.932;2023-03-19T08:42:38;23.33;;;17.57;;
7965;SDS011;4028;43.272;26.932;2023-03-19T08:45:07;24.10;;;18.73;;
7965;SDS011;4028;43.272;26.932;2023-03-19T08:47:34;21.40;;;16.03;;
7965;SDS011;4028;43.272;26.932;2023-03-19T08:49:59;21.10;;;17.13;;
7965;SDS011;4028;43.272;26.932;2023-03-19T08:52:25;21.23;;;15.30;;
7965;SDS011;4028;43.272;26.932;2023-03-19T08:54:51;19.17;;;15.63;;
7965;SDS011;4028;43.272;26.932;2023-03-19T08:57:16;18.17;;;15.00;;
7965;SDS011;4028;43.272;26.932;2023-03-19T08:59:42;17.33;;;14.60;;
7965;SDS011;4028;43.272;26.932;2023-03-19T09:02:08;17.60;;;14.33;;
7965;SDS011;4028;43.272;26.932;2023-03-19T09:04:35;20.30;;;15.53;;
7965;SDS011;4028;43.272;26.932;2023-03-19T09:07:03;17.50;;;14.80;;
7965;SDS011;4028;43.272;26.932;2023-03-19T09:09:28;17.60;;;14.02;;
7965;SDS011;4028;43.272;26.932;2023-03-19T09:11:54;19.17;;;14.90;;
7965;SDS011;4028;43.272;26.932;2023-03-19T09:14:19;18.55;;;15.18;;
7965;SDS011;4028;43.272;26.932;2023-03-19T09:16:47;17.00;;;13.52;;
7965;SDS011;4028;43.272;26.932;2023-03-19T09:19:12;18.50;;;14.55;;
7965;SDS011;4028;43.272;26.932;2023-03-19T09:21:38;16.17;;;14.45;;
7965;SDS011;4028;43.272;26.932;2023-03-19T09:24:04;16.80;;;13.85;;
7965;SDS011;4028;43.272;26.932;2023-03-19T09:26:29;15.57;;;13.98;;
7965;SDS011;4028;43.272;26.932;2023-03-19T09:28:55;14.88;;;13.27;;
7965;SDS011;4028;43.272;26.932;2023-03-19T09:31:21;16.73;;;14.05;;
7965;SDS011;4028;43.272;26.932;2023-03-19T09:33:47;16.80;;;13.68;;
7965;SDS011;4028;43.272;26.932;2023-03-19T09:36:13;15.45;;;13.50;;
7965;SDS011;4028;43.272;26.932;2023-03-19T09:38:40;15.07;;;12.50;;
7965;SDS011;4028;43.272;26.932;2023-03-19T09:46:39;15.30;;;13.15;;
7965;SDS011;4028;43.272;26.932;2023-03-19T09:52:01;14.52;;;12.27;;
7965;SDS011;4028;43.272;26.932;2023-03-19T09:57:52;13.48;;;11.65;;
7965;SDS011;4028;43.272;26.932;2023-03-19T10:00:31;15.60;;;12.55;;
7965;SDS011;4028;43.272;26.932;2023-03-19T10:03:22;14.15;;;12.60;;
7965;SDS011;4028;43.272;26.932;2023-03-19T10:14:25;12.57;;;11.23;;
7965;SDS011;4028;43.272;26.932;2023-03-19T10:16:56;12.83;;;11.27;;
7965;SDS011;4028;43.272;26.932;2023-03-19T10:19:29;16.23;;;13.50;;
7965;SDS011;4028;43.272;26.932;2023-03-19T10:22:04;12.95;;;11.32;;
7965;SDS011;4028;43.272;26.932;2023-03-19T10:24:38;14.52;;;11.32;;
7965;SDS011;4028;43.272;26.932;2023-03-19T10:27:14;12.35;;;10.73;;
7965;SDS011;4028;43.272;26.932;2023-03-19T10:29:42;14.45;;;12.00;;
7965;SDS011;4028;43.272;26.932;2023-03-19T10:34:44;13.23;;;11.15;;
7965;SDS011;4028;43.272;26.932;2023-03-19T10:39:42;11.70;;;10.50;;
7965;SDS011;4028;43.272;26.932;2023-03-19T10:45:04;12.07;;;10.27;;
7965;SDS011;4028;43.272;26.932;2023-03-19T10:47:38;11.07;;;9.27;;
7965;SDS011;4028;43.272;26.932;2023-03-19T10:50:06;10.25;;;9.00;;
7965;SDS011;4028;43.272;26.932;2023-03-19T10:52:39;11.35;;;9.48;;
7965;SDS011;4028;43.272;26.932;2023-03-19T10:55:14;11.27;;;9.23;;
7965;SDS011;4028;43.272;26.932;2023-03-19T10:57:42;12.65;;;10.40;;
7965;SDS011;4028;43.272;26.932;2023-03-19T11:00:19;12.32;;;10.80;;
7965;SDS011;4028;43.272;26.932;2023-03-19T11:02:52;10.90;;;9.60;;
7965;SDS011;4028;43.272;26.932;2023-03-19T11:05:23;12.65;;;9.98;;
7965;SDS011;4028;43.272;26.932;2023-03-19T11:07:58;9.45;;;8.23;;
7965;SDS011;4028;43.272;26.932;2023-03-19T11:10:27;9.95;;;8.90;;
7965;SDS011;4028;43.272;26.932;2023-03-19T11:13:03;10.02;;;8.55;;
7965;SDS011;4028;43.272;26.932;2023-03-19T11:15:35;10.48;;;9.05;;
7965;SDS011;4028;43.272;26.932;2023-03-19T11:18:35;10.27;;;8.57;;
7965;SDS011;4028;43.272;26.932;2023-03-19T11:20:59;10.82;;;9.73;;
7965;SDS011;4028;43.272;26.932;2023-03-19T11:23:36;11.48;;;9.82;;
7965;SDS011;4028;43.272;26.932;2023-03-19T11:26:04;10.52;;;9.38;;
7965;SDS011;4028;43.272;26.932;2023-03-19T11:28:30;14.60;;;12.57;;
7965;SDS011;4028;43.272;26.932;2023-03-19T11:31:05;10.57;;;9.30;;
7965;SDS011;4028;43.272;26.932;2023-03-19T11:42:02;11.93;;;10.30;;
7965;SDS011;4028;43.272;26.932;2023-03-19T11:47:28;10.20;;;9.10;;
7965;SDS011;4028;43.272;26.932;2023-03-19T11:55:21;8.80;;;7.32;;
7965;SDS011;4028;43.272;26.932;2023-03-19T12:01:04;8.27;;;7.10;;
7965;SDS011;4028;43.272;26.932;2023-03-19T12:03:51;8.45;;;7.20;;
7965;SDS011;4028;43.272;26.932;2023-03-19T12:09:09;10.73;;;7.72;;
7965;SDS011;4028;43.272;26.932;2023-03-19T12:11:41;8.68;;;7.35;;
7965;SDS011;4028;43.272;26.932;2023-03-19T12:17:28;9.25;;;8.32;;
7965;SDS011;4028;43.272;26.932;2023-03-19T12:26:07;9.45;;;7.43;;
7965;SDS011;4028;43.272;26.932;2023-03-19T12:31:44;9.23;;;8.20;;
7965;SDS011;4028;43.272;26.932;2023-03-19T12:34:27;7.97;;;7.10;;
7965;SDS011;4028;43.272;26.932;2023-03-19T12:42:39;7.80;;;7.00;;
7965;SDS011;4028;43.272;26.932;2023-03-19T12:45:18;8.18;;;6.82;;
7965;SDS011;4028;43.272;26.932;2023-03-19T12:47:53;8.77;;;7.82;;
7965;SDS011;4028;43.272;26.932;2023-03-19T12:50:24;10.57;;;7.75;;
7965;SDS011;4028;43.272;26.932;2023-03-19T12:52:54;9.50;;;7.20;;
7965;SDS011;4028;43.272;26.932;2023-03-19T13:01:26;6.63;;;5.60;;
7965;SDS011;4028;43.272;26.932;2023-03-19T13:04:23;6.80;;;6.07;;
7965;SDS011;4028;43.272;26.932;2023-03-19T13:06:58;7.95;;;6.28;;
7965;SDS011;4028;43.272;26.932;2023-03-19T13:12:04;9.13;;;7.32;;
7965;SDS011;4028;43.272;26.932;2023-03-19T13:14:37;7.63;;;6.82;;
7965;SDS011;4028;43.272;26.932;2023-03-19T13:22:50;10.10;;;8.38;;
7965;SDS011;4028;43.272;26.932;2023-03-19T13:25:21;9.25;;;8.35;;
7965;SDS011;4028;43.272;26.932;2023-03-19T13:27:53;9.57;;;7.13;;
7965;SDS011;4028;43.272;26.932;2023-03-19T13:30:20;8.27;;;7.47;;
7965;SDS011;4028;43.272;26.932;2023-03-19T13:41:02;7.32;;;6.63;;
7965;SDS011;4028;43.272;26.932;2023-03-19T13:46:03;8.45;;;6.97;;
7965;SDS011;4028;43.272;26.932;2023-03-19T13:48:52;8.50;;;6.72;;
7965;SDS011;4028;43.272;26.932;2023-03-19T14:04:57;8.88;;;6.32;;
7965;SDS011;4028;43.272;26.932;2023-03-19T14:07:29;8.25;;;6.70;;
7965;SDS011;4028;43.272;26.932;2023-03-19T14:12:39;7.93;;;6.93;;
7965;SDS011;4028;43.272;26.932;2023-03-19T14:17:37;7.50;;;6.70;;
7965;SDS011;4028;43.272;26.932;2023-03-19T14:22:54;8.83;;;6.70;;
7965;SDS011;4028;43.272;26.932;2023-03-19T14:28:20;9.67;;;6.20;;
7965;SDS011;4028;43.272;26.932;2023-03-19T14:30:52;8.17;;;6.43;;
7965;SDS011;4028;43.272;26.932;2023-03-19T14:33:24;7.37;;;5.83;;
7965;SDS011;4028;43.272;26.932;2023-03-19T14:35:52;8.73;;;6.40;;
7965;SDS011;4028;43.272;26.932;2023-03-19T14:40:57;8.27;;;6.83;;
7965;SDS011;4028;43.272;26.932;2023-03-19T14:44:00;9.10;;;6.70;;
7965;SDS011;4028;43.272;26.932;2023-03-19T14:47:03;7.97;;;6.37;;
7965;SDS011;4028;43.272;26.932;2023-03-19T14:52:35;8.37;;;6.77;;
7965;SDS011;4028;43.272;26.932;2023-03-19T14:55:09;7.60;;;6.80;;
7965;SDS011;4028;43.272;26.932;2023-03-19T14:57:37;9.27;;;7.07;;
7965;SDS011;4028;43.272;26.932;2023-03-19T15:00:04;9.00;;;6.57;;
7965;SDS011;4028;43.272;26.932;2023-03-19T15:02:35;7.63;;;6.73;;
7965;SDS011;4028;43.272;26.932;2023-03-19T15:07:36;9.20;;;7.67;;
7965;SDS011;4028;43.272;26.932;2023-03-19T15:10:06;9.30;;;7.17;;
7965;SDS011;4028;43.272;26.932;2023-03-19T15:18:05;8.23;;;5.90;;
7965;SDS011;4028;43.272;26.932;2023-03-19T15:20:35;9.43;;;7.20;;
7965;SDS011;4028;43.272;26.932;2023-03-19T15:23:05;8.13;;;7.20;;
7965;SDS011;4028;43.272;26.932;2023-03-19T15:25:33;8.30;;;7.17;;
7965;SDS011;4028;43.272;26.932;2023-03-19T15:30:31;9.23;;;7.80;;
7965;SDS011;4028;43.272;26.932;2023-03-19T15:32:57;11.77;;;9.90;;
7965;SDS011;4028;43.272;26.932;2023-03-19T15:35:23;10.87;;;9.50;;
7965;SDS011;4028;43.272;26.932;2023-03-19T15:37:56;17.77;;;9.17;;
7965;SDS011;4028;43.272;26.932;2023-03-19T15:40:24;11.47;;;8.73;;
7965;SDS011;4028;43.272;26.932;2023-03-19T15:42:52;10.33;;;8.13;;
7965;SDS011;4028;43.272;26.932;2023-03-19T15:45:20;11.20;;;9.67;;
7965;SDS011;4028;43.272;26.932;2023-03-19T15:48:02;11.47;;;9.13;;
7965;SDS011;4028;43.272;26.932;2023-03-19T15:50:30;9.30;;;8.40;;
7965;SDS011;4028;43.272;26.932;2023-03-19T15:53:03;9.60;;;8.67;;
7965;SDS011;4028;43.272;26.932;2023-03-19T15:55:33;10.73;;;8.40;;
7965;SDS011;4028;43.272;26.932;2023-03-19T15:58:05;10.40;;;9.30;;
7965;SDS011;4028;43.272;26.932;2023-03-19T16:00:37;10.87;;;8.43;;
7965;SDS011;4028;43.272;26.932;2023-03-19T16:03:05;8.80;;;7.90;;
7965;SDS011;4028;43.272;26.932;2023-03-19T16:05:33;9.03;;;7.97;;
7965;SDS011;4028;43.272;26.932;2023-03-19T16:08:20;9.53;;;8.10;;
7965;SDS011;4028;43.272;26.932;2023-03-19T16:10:51;11.07;;;9.47;;
7965;SDS011;4028;43.272;26.932;2023-03-19T16:13:19;10.33;;;9.23;;
7965;SDS011;4028;43.272;26.932;2023-03-19T16:15:53;15.00;;;10.97;;
7965;SDS011;4028;43.272;26.932;2023-03-19T16:18:25;16.67;;;12.20;;
7965;SDS011;4028;43.272;26.932;2023-03-19T16:23:28;12.67;;;11.37;;
7965;SDS011;4028;43.272;26.932;2023-03-19T16:26:01;12.03;;;10.73;;
7965;SDS011;4028;43.272;26.932;2023-03-19T16:28:29;12.40;;;11.10;;
7965;SDS011;4028;43.272;26.932;2023-03-19T16:30:54;12.27;;;10.97;;
7965;SDS011;4028;43.272;26.932;2023-03-19T16:33:20;14.50;;;12.17;;
7965;SDS011;4028;43.272;26.932;2023-03-19T16:35:46;13.10;;;11.70;;
7965;SDS011;4028;43.272;26.932;2023-03-19T16:38:13;12.63;;;11.17;;
7965;SDS011;4028;43.272;26.932;2023-03-19T16:40:42;12.83;;;11.57;;
7965;SDS011;4028;43.272;26.932;2023-03-19T16:43:22;13.37;;;12.00;;
7965;SDS011;4028;43.272;26.932;2023-03-19T16:45:50;13.73;;;12.23;;
7965;SDS011;4028;43.272;26.932;2023-03-19T16:48:17;13.90;;;12.30;;
7965;SDS011;4028;43.272;26.932;2023-03-19T16:50:42;13.63;;;12.30;;
7965;SDS011;4028;43.272;26.932;2023-03-19T16:55:48;15.33;;;12.67;;
7965;SDS011;4028;43.272;26.932;2023-03-19T16:58:16;13.83;;;12.40;;
7965;SDS011;4028;43.272;26.932;2023-03-19T17:00:44;14.83;;;12.70;;
7965;SDS011;4028;43.272;26.932;2023-03-19T17:03:14;15.67;;;13.00;;
7965;SDS011;4028;43.272;26.932;2023-03-19T17:05:42;14.57;;;12.37;;
7965;SDS011;4028;43.272;26.932;2023-03-19T17:08:09;16.90;;;13.67;;